createdAt,value
2023-04-07T00:02:18.850Z,7.30
2023-04-07T00:04:47.071Z,7.30
2023-04-07T00:07:15.138Z,7.30
2023-04-07T00:09:44.592Z,7.30
2023-04-07T00:12:12.655Z,7.30
2023-04-07T00:14:40.679Z,7.30
2023-04-07T00:17:08.671Z,7.30
2023-04-07T00:19:36.865Z,7.40
2023-04-07T00:22:04.868Z,7.40
2023-04-07T00:24:34.711Z,7.40
2023-04-07T00:27:04.378Z,7.40
2023-04-07T00:29:32.547Z,7.40
2023-04-07T00:32:00.678Z,7.40
2023-04-07T00:34:28.809Z,7.50
2023-04-07T00:36:56.871Z,7.40
2023-04-07T00:39:24.954Z,7.40
2023-04-07T00:41:53.204Z,7.40
2023-04-07T00:44:22.845Z,7.40
2023-04-07T00:46:50.994Z,7.40
2023-04-07T00:49:19.198Z,7.40
2023-04-07T00:51:47.673Z,7.30
2023-04-07T00:54:16.534Z,7.30
2023-04-07T00:56:44.594Z,7.30
2023-04-07T00:59:12.799Z,7.20
2023-04-07T01:01:49.505Z,7.20
2023-04-07T01:04:27.687Z,7.00
2023-04-07T01:07:00.345Z,7.00
2023-04-07T01:09:41.906Z,6.90
2023-04-07T01:12:16.759Z,6.80
2023-04-07T01:14:52.049Z,6.70
2023-04-07T01:17:50.021Z,6.60
2023-04-07T01:20:23.061Z,6.50
2023-04-07T01:23:03.184Z,6.40
2023-04-07T01:25:53.747Z,6.30
2023-04-07T01:28:45.891Z,6.20
2023-04-07T01:31:17.920Z,6.20
2023-04-07T01:33:47.179Z,6.10
2023-04-07T01:36:16.841Z,6.10
2023-04-07T01:38:47.357Z,6.10
2023-04-07T01:41:16.807Z,6.00
2023-04-07T01:43:46.446Z,6.00
2023-04-07T01:46:18.624Z,5.90
2023-04-07T01:48:47.347Z,5.90
2023-04-07T01:51:17.606Z,5.90
2023-04-07T01:53:46.846Z,5.80
2023-04-07T01:56:14.838Z,5.80
2023-04-07T01:58:43.121Z,5.80
2023-04-07T02:01:15.401Z,5.70
2023-04-07T02:03:51.656Z,5.70
2023-04-07T02:06:24.401Z,5.70
2023-04-07T02:08:56.811Z,5.60
2023-04-07T02:11:27.431Z,5.60
2023-04-07T02:14:01.687Z,5.60
2023-04-07T02:16:33.884Z,5.50
2023-04-07T02:19:04.688Z,5.50
2023-04-07T02:21:34.305Z,5.50
2023-04-07T02:24:02.648Z,5.40
2023-04-07T02:26:35.463Z,5.40
2023-04-07T02:29:03.625Z,5.40
2023-04-07T02:31:32.055Z,5.30
2023-04-07T02:34:03.364Z,5.30
2023-04-07T02:36:31.388Z,5.30
2023-04-07T02:39:01.352Z,5.30
2023-04-07T02:41:29.314Z,5.30
2023-04-07T02:43:57.665Z,5.30
2023-04-07T02:46:25.778Z,5.30
2023-04-07T02:48:53.821Z,5.20
2023-04-07T02:51:23.073Z,5.20
2023-04-07T02:53:50.978Z,5.20
2023-04-07T02:56:18.927Z,5.20
2023-04-07T02:58:46.972Z,5.20
2023-04-07T03:01:14.957Z,5.10
2023-04-07T03:03:44.839Z,5.00
2023-04-07T03:06:17.462Z,5.00
2023-04-07T03:09:04.604Z,5.00
2023-04-07T03:11:32.533Z,4.90
2023-04-07T03:14:01.750Z,4.90
2023-04-07T03:16:32.006Z,5.00
2023-04-07T03:19:09.900Z,5.00
2023-04-07T03:21:42.551Z,5.10
2023-04-07T03:24:12.263Z,5.20
2023-04-07T03:26:40.283Z,5.30
2023-04-07T03:29:17.084Z,5.40
2023-04-07T03:31:45.118Z,5.60
2023-04-07T03:34:16.135Z,5.80
2023-04-07T03:36:44.139Z,5.90
2023-04-07T03:39:14.043Z,5.90
2023-04-07T03:41:41.998Z,6.00
2023-04-07T03:44:11.449Z,6.10
2023-04-07T03:46:41.229Z,6.10
2023-04-07T03:49:09.231Z,6.20
2023-04-07T03:51:37.352Z,6.30
2023-04-07T03:54:14.206Z,6.30
2023-04-07T03:56:44.824Z,6.30
2023-04-07T03:59:14.809Z,6.40
2023-04-07T04:01:53.882Z,6.50
2023-04-07T04:04:21.972Z,6.40
2023-04-07T04:06:51.369Z,6.40
2023-04-07T04:09:30.977Z,6.50
2023-04-07T04:11:59.848Z,6.50
2023-04-07T04:14:28.328Z,6.40
2023-04-07T04:17:00.617Z,6.30
2023-04-07T04:19:36.343Z,6.20
2023-04-07T04:22:12.779Z,6.10
2023-04-07T04:24:51.271Z,6.00
2023-04-07T04:27:19.456Z,5.90
2023-04-07T04:29:53.861Z,5.80
2023-04-07T04:32:31.594Z,5.60
2023-04-07T04:35:00.133Z,5.60
2023-04-07T04:37:29.508Z,5.70
2023-04-07T04:39:59.751Z,5.70
2023-04-07T04:42:28.104Z,5.60
2023-04-07T04:44:57.963Z,5.50
2023-04-07T04:47:27.172Z,5.50
2023-04-07T04:49:55.294Z,5.40
2023-04-07T04:52:23.310Z,5.30
2023-04-07T04:54:51.862Z,5.20
2023-04-07T04:57:22.278Z,5.10
2023-04-07T04:59:50.665Z,5.10
2023-04-07T05:02:18.768Z,5.10
2023-04-07T05:04:46.960Z,5.00
2023-04-07T05:07:23.094Z,5.00
2023-04-07T05:09:51.146Z,5.00
2023-04-07T05:12:22.723Z,5.00
2023-04-07T05:14:57.322Z,5.00
2023-04-07T05:17:25.395Z,5.10
2023-04-07T05:19:56.561Z,5.20
2023-04-07T05:22:34.542Z,5.10
2023-04-07T05:25:05.565Z,5.10
2023-04-07T05:27:35.398Z,5.10
2023-04-07T05:30:10.580Z,5.10
2023-04-07T05:32:38.679Z,5.20
2023-04-07T05:35:15.246Z,5.20
2023-04-07T05:37:50.745Z,5.40
2023-04-07T05:40:19.213Z,5.60
2023-04-07T05:42:49.483Z,5.70
2023-04-07T05:45:20.788Z,5.80
2023-04-07T05:47:51.616Z,6.00
2023-04-07T05:50:26.935Z,6.10
2023-04-07T05:52:54.931Z,6.30
2023-04-07T05:55:25.890Z,6.40
2023-04-07T05:57:55.644Z,6.60
2023-04-07T06:00:27.264Z,6.80
2023-04-07T06:03:04.536Z,6.90
2023-04-07T06:05:43.718Z,7.00
2023-04-07T06:08:13.425Z,7.10
2023-04-07T06:10:42.115Z,7.30
2023-04-07T06:13:11.399Z,7.40
2023-04-07T06:15:40.573Z,7.60
2023-04-07T06:18:08.602Z,7.70
2023-04-07T06:20:36.727Z,7.80
2023-04-07T06:23:04.724Z,7.90
2023-04-07T06:25:33.408Z,8.00
2023-04-07T06:28:02.336Z,8.10
2023-04-07T06:30:31.691Z,8.30
2023-04-07T06:33:00.977Z,8.30
2023-04-07T06:35:29.033Z,8.30
2023-04-07T06:37:56.979Z,8.30
2023-04-07T06:40:26.114Z,8.40
2023-04-07T06:42:54.575Z,8.50
2023-04-07T06:45:32.772Z,8.50
2023-04-07T06:48:00.813Z,8.40
2023-04-07T06:50:28.891Z,8.50
2023-04-07T06:52:56.794Z,8.50
2023-04-07T06:55:24.716Z,8.60
2023-04-07T06:57:52.593Z,8.60
2023-04-07T07:00:21.586Z,8.70
2023-04-07T07:02:50.988Z,8.80
2023-04-07T07:05:19.188Z,8.90
2023-04-07T07:07:47.115Z,8.90
2023-04-07T07:10:15.386Z,8.80
2023-04-07T07:12:43.590Z,8.90
2023-04-07T07:15:12.134Z,8.90
2023-04-07T07:17:40.529Z,8.90
2023-04-07T07:20:11.403Z,9.00
2023-04-07T07:22:39.363Z,9.00
2023-04-07T07:25:08.032Z,9.00
2023-04-07T07:27:35.978Z,9.00
2023-04-07T07:30:03.999Z,9.00
2023-04-07T07:32:31.962Z,9.00
2023-04-07T07:35:00.265Z,9.00
2023-04-07T07:37:29.570Z,8.90
2023-04-07T07:39:57.483Z,8.90
2023-04-07T07:42:25.463Z,8.90
2023-04-07T07:44:53.400Z,8.90
2023-04-07T07:47:21.386Z,8.90
2023-04-07T07:49:49.325Z,9.00
2023-04-07T07:52:17.277Z,9.00
2023-04-07T07:54:46.554Z,9.10
2023-04-07T07:57:14.747Z,9.10
2023-04-07T07:59:42.835Z,9.10
2023-04-07T08:02:13.886Z,9.20
2023-04-07T08:04:41.954Z,9.20
2023-04-07T08:07:11.449Z,9.20
2023-04-07T08:09:39.574Z,9.30
2023-04-07T08:12:08.900Z,9.30
2023-04-07T08:14:36.879Z,9.40
2023-04-07T08:17:04.832Z,9.40
2023-04-07T08:19:32.743Z,9.40
2023-04-07T08:22:00.745Z,9.30
2023-04-07T08:24:32.702Z,9.30
2023-04-07T08:27:01.319Z,9.30
2023-04-07T08:29:33.492Z,9.30
2023-04-07T08:32:01.710Z,9.30
2023-04-07T08:34:29.759Z,9.30
2023-04-07T08:36:57.765Z,9.30
2023-04-07T08:39:28.179Z,9.40
2023-04-07T08:41:57.805Z,9.50
2023-04-07T08:44:29.121Z,9.60
2023-04-07T08:47:00.648Z,9.70
2023-04-07T08:49:29.953Z,9.90
2023-04-07T08:52:00.697Z,10.10
2023-04-07T08:54:33.873Z,10.30
2023-04-07T08:57:03.034Z,10.40
2023-04-07T08:59:33.693Z,10.60
2023-04-07T09:02:03.832Z,10.70
2023-04-07T09:04:31.935Z,10.90
2023-04-07T09:07:01.965Z,11.00
2023-04-07T09:09:30.701Z,11.10
2023-04-07T09:11:58.776Z,11.10
2023-04-07T09:14:27.105Z,11.20
2023-04-07T09:16:56.183Z,11.20
2023-04-07T09:19:28.106Z,11.20
2023-04-07T09:21:56.226Z,11.20
2023-04-07T09:24:25.723Z,11.20
2023-04-07T09:27:10.323Z,11.20
2023-04-07T09:29:38.697Z,11.10
2023-04-07T09:32:08.868Z,11.00
2023-04-07T09:34:41.137Z,11.00
2023-04-07T09:37:10.630Z,11.00
2023-04-07T09:39:51.573Z,11.00
2023-04-07T09:42:19.594Z,11.10
2023-04-07T09:44:47.566Z,11.10
2023-04-07T09:47:16.002Z,11.20
2023-04-07T09:49:53.606Z,11.30
2023-04-07T09:52:26.458Z,11.50
2023-04-07T09:54:55.575Z,11.60
2023-04-07T09:57:24.615Z,11.70
2023-04-07T09:59:55.494Z,11.90
2023-04-07T10:02:26.677Z,12.10
2023-04-07T10:04:56.558Z,12.20
2023-04-07T10:07:25.575Z,12.30
2023-04-07T10:09:53.560Z,12.20
2023-04-07T10:12:21.647Z,12.10
2023-04-07T10:14:49.967Z,11.80
2023-04-07T10:17:20.791Z,11.60
2023-04-07T10:19:51.081Z,11.40
2023-04-07T10:22:21.225Z,11.20
2023-04-07T10:24:58.652Z,11.00
2023-04-07T10:27:32.699Z,10.90
2023-04-07T10:30:02.398Z,10.80
2023-04-07T10:32:32.107Z,10.70
2023-04-07T10:35:01.234Z,10.70
2023-04-07T10:37:30.604Z,10.60
2023-04-07T10:41:06.135Z,10.60
2023-04-07T10:43:39.891Z,10.40
2023-04-07T10:46:07.910Z,10.50
2023-04-07T10:48:36.295Z,10.50
2023-04-07T10:51:20.444Z,10.60
2023-04-07T10:54:18.705Z,10.80
2023-04-07T10:57:10.525Z,10.80
2023-04-07T10:59:41.929Z,10.90
2023-04-07T11:02:37.323Z,10.90
2023-04-07T11:05:05.928Z,10.90
2023-04-07T11:07:51.787Z,11.00
2023-04-07T11:10:22.172Z,11.10
2023-04-07T11:13:07.956Z,11.10
2023-04-07T11:15:39.663Z,11.10
2023-04-07T11:18:10.637Z,11.20
2023-04-07T11:20:47.265Z,11.30
2023-04-07T11:23:16.476Z,11.40
2023-04-07T11:25:47.506Z,11.50
2023-04-07T11:28:16.046Z,11.70
2023-04-07T11:30:49.776Z,11.80
2023-04-07T11:33:19.906Z,11.80
2023-04-07T11:35:52.446Z,11.90
2023-04-07T11:38:21.073Z,12.00
2023-04-07T11:40:50.784Z,11.90
2023-04-07T11:43:20.835Z,11.90
2023-04-07T11:46:04.064Z,11.80
2023-04-07T11:48:33.371Z,11.60
2023-04-07T11:51:02.124Z,11.50
2023-04-07T11:53:31.873Z,11.40
2023-04-07T11:56:06.608Z,11.40
2023-04-07T11:58:34.869Z,11.40
2023-04-07T12:01:06.916Z,11.50
2023-04-07T12:03:37.057Z,11.60
2023-04-07T12:06:05.833Z,11.70
2023-04-07T12:08:41.678Z,11.80
2023-04-07T12:11:11.395Z,12.00
2023-04-07T12:13:39.589Z,12.20
2023-04-07T12:16:07.748Z,12.40
2023-04-07T12:18:36.485Z,12.60
2023-04-07T12:21:04.999Z,12.70
2023-04-07T12:23:32.993Z,12.80
2023-04-07T12:26:01.188Z,13.00
2023-04-07T12:28:30.567Z,13.10
2023-04-07T12:30:58.819Z,13.20
2023-04-07T12:33:26.894Z,13.20
2023-04-07T12:35:54.889Z,13.30
2023-04-07T12:38:22.879Z,13.40
2023-04-07T12:40:51.692Z,13.40
2023-04-07T12:43:19.626Z,13.50
2023-04-07T12:45:48.979Z,13.50
2023-04-07T12:48:18.685Z,13.60
2023-04-07T12:50:46.731Z,13.50
2023-04-07T12:53:14.682Z,13.60
2023-04-07T12:55:42.683Z,13.80
2023-04-07T12:58:10.721Z,13.90
2023-04-07T13:00:38.635Z,14.00
2023-04-07T13:03:08.259Z,13.90
2023-04-07T13:05:36.345Z,14.00
2023-04-07T13:08:04.483Z,14.10
2023-04-07T13:10:32.510Z,14.30
2023-04-07T13:13:00.554Z,14.40
2023-04-07T13:15:29.213Z,14.50
2023-04-07T13:17:57.219Z,14.60
2023-04-07T13:20:28.339Z,14.60
2023-04-07T13:25:28.859Z,14.40
2023-04-07T13:27:56.833Z,14.20
2023-04-07T13:30:24.859Z,14.00
2023-04-07T13:32:53.430Z,13.90
2023-04-07T13:35:21.578Z,13.90
2023-04-07T13:37:50.875Z,14.00
2023-04-07T13:40:18.978Z,14.10
2023-04-07T13:42:47.311Z,14.40
2023-04-07T13:45:15.444Z,14.50
2023-04-07T13:47:43.490Z,14.70
2023-04-07T13:50:11.750Z,14.70
2023-04-07T13:52:39.679Z,14.80
2023-04-07T13:55:10.148Z,14.70
2023-04-07T13:57:38.079Z,14.60
2023-04-07T14:00:07.594Z,14.30
2023-04-07T14:02:37.052Z,14.20
2023-04-07T14:05:05.475Z,14.00
2023-04-07T14:07:34.445Z,13.80
2023-04-07T14:10:02.393Z,13.50
2023-04-07T14:12:32.303Z,13.20
2023-04-07T14:15:00.295Z,12.90
2023-04-07T14:17:28.273Z,12.80
2023-04-07T14:19:56.218Z,12.80
2023-04-07T14:22:24.232Z,12.80
2023-04-07T14:24:52.216Z,12.80
2023-04-07T14:27:22.327Z,12.80
2023-04-07T14:29:51.654Z,12.90
2023-04-07T14:32:19.751Z,13.00
2023-04-07T14:34:47.894Z,13.10
2023-04-07T14:37:18.063Z,13.00
2023-04-07T14:39:59.284Z,12.80
2023-04-07T14:42:30.728Z,12.40
2023-04-07T14:45:01.692Z,12.10
2023-04-07T14:47:29.976Z,11.80
2023-04-07T14:49:58.003Z,11.50
2023-04-07T14:52:26.117Z,11.10
2023-04-07T14:54:54.126Z,10.70
2023-04-07T14:57:22.284Z,10.40
2023-04-07T14:59:50.284Z,10.10
2023-04-07T15:02:19.731Z,9.90
2023-04-07T15:04:47.866Z,9.90
2023-04-07T15:07:15.811Z,10.00
2023-04-07T15:09:43.764Z,10.00
2023-04-07T15:12:13.021Z,10.20
2023-04-07T15:14:40.971Z,10.30
2023-04-07T15:17:08.919Z,10.50
2023-04-07T15:19:38.220Z,10.80
2023-04-07T15:22:06.215Z,10.90
2023-04-07T15:24:34.321Z,11.10
2023-04-07T15:27:02.321Z,11.20
2023-04-07T15:29:30.431Z,11.20
2023-04-07T15:31:58.519Z,11.20
2023-04-07T15:34:27.882Z,11.20
2023-04-07T15:36:57.311Z,11.30
2023-04-07T15:39:25.316Z,11.40
2023-04-07T15:41:53.282Z,11.60
2023-04-07T15:44:21.369Z,11.80
2023-04-07T15:46:49.763Z,11.90
2023-04-07T15:49:23.104Z,12.00
2023-04-07T15:51:53.065Z,12.00
2023-04-07T15:54:22.438Z,12.00
2023-04-07T15:56:50.413Z,12.00
2023-04-07T15:59:18.413Z,11.80
2023-04-07T16:01:46.615Z,11.70
2023-04-07T16:04:15.066Z,11.60
2023-04-07T16:06:43.138Z,11.60
2023-04-07T16:09:11.136Z,11.60
2023-04-07T16:11:40.616Z,11.60
2023-04-07T16:14:09.828Z,11.60
2023-04-07T16:16:40.808Z,11.50
2023-04-07T16:19:09.083Z,11.50
2023-04-07T16:21:37.180Z,11.50
2023-04-07T16:24:06.713Z,11.40
2023-04-07T16:26:34.924Z,11.40
2023-04-07T16:29:04.439Z,11.40
2023-04-07T16:31:32.475Z,11.30
2023-04-07T16:34:00.518Z,11.30
2023-04-07T16:36:28.954Z,11.30
2023-04-07T16:38:57.618Z,11.20
2023-04-07T16:41:26.270Z,11.20
2023-04-07T16:43:54.241Z,11.20
2023-04-07T16:46:25.862Z,11.10
2023-04-07T16:48:54.117Z,11.10
2023-04-07T16:51:22.655Z,11.10
2023-04-07T16:53:50.775Z,10.90
2023-04-07T16:56:19.691Z,10.90
2023-04-07T16:58:47.797Z,10.80
2023-04-07T17:01:16.556Z,10.70
2023-04-07T17:03:48.776Z,10.70
2023-04-07T17:06:19.490Z,10.60
2023-04-07T17:08:48.856Z,10.50
2023-04-07T17:11:16.847Z,10.50
2023-04-07T17:13:44.944Z,10.40
2023-04-07T17:16:14.030Z,10.50
2023-04-07T17:18:42.376Z,10.50
2023-04-07T17:21:11.731Z,10.50
2023-04-07T17:23:40.864Z,10.50
2023-04-07T17:26:08.908Z,10.50
2023-04-07T17:28:36.878Z,10.60
2023-04-07T17:31:04.861Z,10.60
2023-04-07T17:33:33.409Z,10.60
2023-04-07T17:36:03.213Z,10.60
2023-04-07T17:38:34.737Z,10.60
2023-04-07T17:41:02.956Z,10.50
2023-04-07T17:43:31.716Z,10.50
2023-04-07T17:45:59.955Z,10.50
2023-04-07T17:48:27.930Z,10.40
2023-04-07T17:50:56.275Z,10.40
2023-04-07T17:53:24.313Z,10.30
2023-04-07T17:55:53.763Z,10.30
2023-04-07T17:58:21.742Z,10.30
2023-04-07T18:00:53.416Z,10.30
2023-04-07T18:03:21.845Z,10.30
2023-04-07T18:05:52.622Z,10.20
2023-04-07T18:08:23.363Z,10.20
2023-04-07T18:10:56.848Z,10.20
2023-04-07T18:13:25.184Z,10.20
2023-04-07T18:15:53.631Z,10.20
2023-04-07T18:18:21.652Z,10.20
2023-04-07T18:20:51.452Z,10.10
2023-04-07T18:23:19.434Z,10.10
2023-04-07T18:25:47.531Z,10.10
2023-04-07T18:28:18.866Z,10.00
2023-04-07T18:30:46.968Z,10.00
2023-04-07T18:33:15.456Z,10.00
2023-04-07T18:35:43.419Z,10.00
2023-04-07T18:38:11.369Z,10.00
2023-04-07T18:40:39.481Z,10.10
2023-04-07T18:43:08.060Z,10.10
2023-04-07T18:45:37.310Z,10.00
2023-04-07T18:48:05.635Z,9.90
2023-04-07T18:50:33.595Z,9.90
2023-04-07T18:53:01.754Z,9.80
2023-04-07T18:55:29.671Z,9.80
2023-04-07T18:57:57.586Z,9.70
2023-04-07T19:00:25.575Z,9.80
2023-04-07T19:02:55.055Z,9.70
2023-04-07T19:05:25.730Z,9.70
2023-04-07T19:07:54.013Z,9.70
2023-04-07T19:10:22.133Z,9.70
2023-04-07T19:12:50.035Z,9.70
2023-04-07T19:15:18.041Z,9.70
2023-04-07T19:17:46.021Z,9.60
2023-04-07T19:20:15.400Z,9.60
2023-04-07T19:22:43.914Z,9.60
2023-04-07T19:25:12.209Z,9.60
2023-04-07T19:27:40.904Z,9.50
2023-04-07T19:30:09.899Z,9.50
2023-04-07T19:32:37.873Z,9.50
2023-04-07T19:35:06.891Z,9.40
2023-04-07T19:37:37.765Z,9.40
2023-04-07T19:40:06.730Z,9.30
2023-04-07T19:42:36.046Z,9.30
2023-04-07T19:45:07.199Z,9.30
2023-04-07T19:47:37.101Z,9.20
2023-04-07T19:50:05.712Z,9.30
2023-04-07T19:52:33.904Z,9.20
2023-04-07T19:55:03.736Z,9.20
2023-04-07T19:57:32.220Z,9.20
2023-04-07T20:00:00.774Z,9.20
2023-04-07T20:02:28.937Z,9.20
2023-04-07T20:04:58.160Z,9.20
2023-04-07T20:07:26.178Z,9.20
2023-04-07T20:09:55.021Z,9.10
2023-04-07T20:12:24.671Z,9.20
2023-04-07T20:14:52.579Z,9.20
2023-04-07T20:17:20.938Z,9.10
2023-04-07T20:19:49.419Z,9.10
2023-04-07T20:22:17.395Z,9.20
2023-04-07T20:24:45.307Z,9.10
2023-04-07T20:27:13.327Z,9.20
2023-04-07T20:29:42.671Z,9.10
2023-04-07T20:32:10.627Z,9.10
2023-04-07T20:34:38.676Z,9.20
2023-04-07T20:37:06.621Z,9.20
2023-04-07T20:39:34.616Z,9.20
2023-04-07T20:42:03.081Z,9.20
2023-04-07T20:44:31.436Z,9.20
2023-04-07T20:47:00.754Z,9.20
2023-04-07T20:49:28.720Z,9.30
2023-04-07T20:51:56.858Z,9.30
2023-04-07T20:54:25.427Z,9.20
2023-04-07T20:56:53.433Z,9.30
2023-04-07T20:59:21.338Z,9.30
2023-04-07T21:01:49.352Z,9.30
2023-04-07T21:04:20.076Z,9.30
2023-04-07T21:06:48.178Z,9.30
2023-04-07T21:09:16.380Z,9.20
2023-04-07T21:11:44.381Z,9.30
2023-04-07T21:14:12.462Z,9.20
2023-04-07T21:16:40.526Z,9.20
2023-04-07T21:19:11.132Z,9.20
2023-04-07T21:21:40.689Z,9.20
2023-04-07T21:24:08.610Z,9.20
2023-04-07T21:26:36.568Z,9.10
2023-04-07T21:29:04.600Z,9.10
2023-04-07T21:31:33.707Z,9.10
2023-04-07T21:34:01.707Z,9.10
2023-04-07T21:36:31.422Z,9.10
2023-04-07T21:39:00.708Z,9.00
2023-04-07T21:41:28.704Z,9.10
2023-04-07T21:43:56.653Z,9.10
2023-04-07T21:46:24.750Z,9.10
2023-04-07T21:48:52.821Z,9.00
2023-04-07T21:51:21.485Z,9.00
2023-04-07T21:53:49.400Z,9.00
2023-04-07T21:56:18.723Z,9.00
2023-04-07T21:58:47.271Z,9.00
2023-04-07T22:01:15.427Z,9.00
2023-04-07T22:03:44.402Z,9.00
2023-04-07T22:06:12.597Z,8.90
2023-04-07T22:08:44.309Z,8.90
2023-04-07T22:11:18.159Z,8.90
2023-04-07T22:13:46.138Z,8.80
2023-04-07T22:16:14.177Z,8.80
2023-04-07T22:18:42.209Z,8.80
2023-04-07T22:21:10.269Z,8.80
2023-04-07T22:23:38.232Z,8.70
2023-04-07T22:26:06.277Z,8.70
2023-04-07T22:28:36.328Z,8.60
2023-04-07T22:31:04.411Z,8.60
2023-04-07T22:33:32.445Z,8.60
2023-04-07T22:36:00.679Z,8.60
2023-04-07T22:38:28.656Z,8.60
2023-04-07T22:40:56.556Z,8.50
2023-04-07T22:43:24.471Z,8.60
2023-04-07T22:45:53.808Z,8.60
2023-04-07T22:48:21.748Z,8.60
2023-04-07T22:50:49.720Z,8.60
2023-04-07T22:53:18.675Z,8.60
2023-04-07T22:55:47.093Z,8.60
2023-04-07T22:58:15.050Z,8.60
2023-04-07T23:00:43.171Z,8.60
2023-04-07T23:03:12.616Z,8.60
2023-04-07T23:05:40.945Z,8.70
2023-04-07T23:08:08.876Z,8.70
2023-04-07T23:10:36.826Z,8.60
2023-04-07T23:13:04.735Z,8.60
2023-04-07T23:15:34.990Z,8.60
2023-04-07T23:18:05.205Z,8.60
2023-04-07T23:20:34.602Z,8.60
2023-04-07T23:23:02.632Z,8.50
2023-04-07T23:25:30.644Z,8.50
2023-04-07T23:28:00.257Z,8.50
2023-04-07T23:30:28.258Z,8.40
2023-04-07T23:32:56.286Z,8.40
2023-04-07T23:35:26.895Z,8.40
2023-04-07T23:37:56.274Z,8.40
2023-04-07T23:40:24.251Z,8.40
2023-04-07T23:42:52.221Z,8.30
2023-04-07T23:45:20.783Z,8.30
2023-04-07T23:47:48.786Z,8.30
2023-04-07T23:50:17.098Z,8.30
2023-04-07T23:52:45.094Z,8.30
2023-04-07T23:55:14.593Z,8.30
2023-04-07T23:57:42.534Z,8.30
